createdAt,value
2019-01-30T00:00:31.406Z,3.35
2019-01-30T00:02:58.966Z,3.40
2019-01-30T00:05:26.406Z,3.38
2019-01-30T00:07:53.862Z,3.37
2019-01-30T00:10:21.306Z,3.34
2019-01-30T00:12:48.884Z,3.35
2019-01-30T00:15:16.324Z,3.42
2019-01-30T00:17:43.846Z,3.36
2019-01-30T00:20:11.263Z,3.44
2019-01-30T00:22:38.699Z,3.34
2019-01-30T00:25:06.243Z,3.37
2019-01-30T00:27:33.700Z,3.35
2019-01-30T00:30:04.011Z,3.40
2019-01-30T00:32:29.014Z,3.36
2019-01-30T00:34:56.755Z,3.39
2019-01-30T00:40:15.716Z,3.47
2019-01-30T00:42:43.176Z,3.29
2019-01-30T00:45:11.521Z,3.34
2019-01-30T00:47:39.568Z,3.31
2019-01-30T00:50:06.988Z,3.33
2019-01-30T00:52:34.439Z,3.38
2019-01-30T00:55:01.873Z,3.39
2019-01-30T00:57:30.281Z,3.35
2019-01-30T00:59:57.711Z,3.31
2019-01-30T01:02:25.134Z,3.36
2019-01-30T01:04:52.602Z,3.28
2019-01-30T01:07:20.019Z,3.38
2019-01-30T01:09:47.481Z,3.37
2019-01-30T01:12:14.919Z,3.40
2019-01-30T01:14:42.373Z,3.40
2019-01-30T01:17:10.381Z,3.40
2019-01-30T01:19:37.811Z,3.33
2019-01-30T01:22:05.260Z,3.40
2019-01-30T01:24:32.690Z,3.41
2019-01-30T01:27:00.146Z,3.39
2019-01-30T01:29:27.587Z,3.42
2019-01-30T01:31:55.016Z,3.36
2019-01-30T01:34:22.473Z,3.34
2019-01-30T01:36:49.907Z,3.32
2019-01-30T01:39:17.341Z,3.39
2019-01-30T01:41:44.798Z,3.36
2019-01-30T01:44:12.226Z,3.42
2019-01-30T01:46:39.672Z,3.32
2019-01-30T01:49:07.094Z,3.37
2019-01-30T01:51:34.542Z,3.34
2019-01-30T01:54:02.005Z,3.26
2019-01-30T01:56:29.445Z,3.27
2019-01-30T01:58:56.876Z,3.32
2019-01-30T02:01:24.297Z,3.36
2019-01-30T02:03:51.732Z,3.22
2019-01-30T02:06:19.173Z,3.30
2019-01-30T02:08:47.352Z,3.15
2019-01-30T02:11:14.818Z,3.22
2019-01-30T02:13:42.240Z,3.11
2019-01-30T02:16:10.282Z,3.18
2019-01-30T02:18:37.722Z,3.24
2019-01-30T02:21:05.172Z,3.26
2019-01-30T02:23:32.625Z,3.33
2019-01-30T02:26:00.043Z,3.20
2019-01-30T02:28:27.478Z,3.13
2019-01-30T02:30:55.946Z,3.19
2019-01-30T02:33:23.450Z,3.25
2019-01-30T02:35:51.226Z,3.26
2019-01-30T02:38:18.897Z,3.27
2019-01-30T02:40:46.328Z,3.13
2019-01-30T02:43:13.784Z,3.23
2019-01-30T02:45:42.262Z,3.29
2019-01-30T02:48:09.680Z,3.20
2019-01-30T02:50:37.122Z,3.24
2019-01-30T02:53:04.557Z,3.23
2019-01-30T02:55:32.021Z,3.24
2019-01-30T02:57:59.494Z,3.27
2019-01-30T03:00:28.454Z,3.20
2019-01-30T03:02:55.895Z,3.22
2019-01-30T03:05:23.331Z,3.26
2019-01-30T03:07:50.774Z,3.35
2019-01-30T03:10:19.151Z,3.33
2019-01-30T03:12:46.576Z,3.28
2019-01-30T03:15:14.950Z,3.38
2019-01-30T03:17:42.965Z,3.29
2019-01-30T03:20:14.251Z,3.34
2019-01-30T03:22:41.692Z,3.25
2019-01-30T03:25:09.131Z,3.25
2019-01-30T03:27:37.500Z,3.25
2019-01-30T03:30:20.833Z,3.27
2019-01-30T03:32:48.334Z,3.24
2019-01-30T03:35:15.742Z,3.22
2019-01-30T03:37:43.497Z,3.18
2019-01-30T03:40:11.765Z,3.12
2019-01-30T03:42:39.223Z,3.06
2019-01-30T03:45:06.642Z,3.19
2019-01-30T03:47:34.148Z,3.10
2019-01-30T03:50:01.588Z,3.14
2019-01-30T03:52:29.048Z,3.16
2019-01-30T03:54:56.464Z,3.19
2019-01-30T03:57:23.938Z,3.14
2019-01-30T03:59:51.369Z,3.12
2019-01-30T04:02:18.823Z,3.15
2019-01-30T04:04:46.290Z,3.08
2019-01-30T04:07:13.958Z,2.99
2019-01-30T04:09:41.429Z,3.05
2019-01-30T04:12:08.884Z,3.11
2019-01-30T04:14:36.368Z,3.10
2019-01-30T04:17:03.809Z,3.13
2019-01-30T04:19:31.251Z,3.07
2019-01-30T04:21:58.690Z,3.01
2019-01-30T04:24:26.163Z,3.00
2019-01-30T04:26:53.639Z,2.99
2019-01-30T04:29:21.063Z,3.01
2019-01-30T04:31:48.498Z,2.95
2019-01-30T04:34:15.953Z,2.99
2019-01-30T04:36:43.392Z,2.89
2019-01-30T04:39:10.858Z,3.03
2019-01-30T04:41:38.291Z,2.83
2019-01-30T04:44:05.768Z,2.93
2019-01-30T04:46:33.192Z,2.99
2019-01-30T04:49:00.656Z,3.01
2019-01-30T04:51:28.101Z,3.08
2019-01-30T04:53:55.530Z,2.98
2019-01-30T04:56:22.961Z,2.98
2019-01-30T04:58:50.371Z,3.04
2019-01-30T05:01:17.822Z,3.14
2019-01-30T05:03:45.236Z,3.07
2019-01-30T05:06:12.692Z,3.08
2019-01-30T05:08:40.130Z,3.05
2019-01-30T05:11:07.548Z,2.93
2019-01-30T05:13:35.008Z,2.95
2019-01-30T05:16:02.422Z,3.01
2019-01-30T05:18:29.894Z,3.06
2019-01-30T05:20:57.307Z,2.92
2019-01-30T05:23:24.860Z,2.99
2019-01-30T05:25:52.300Z,3.03
2019-01-30T05:28:19.760Z,2.96
2019-01-30T05:30:47.193Z,2.97
2019-01-30T05:33:15.463Z,2.95
2019-01-30T05:35:42.896Z,3.03
2019-01-30T05:38:10.337Z,2.98
2019-01-30T05:40:38.623Z,3.05
2019-01-30T05:43:06.169Z,3.11
2019-01-30T05:45:33.582Z,3.08
2019-01-30T05:48:01.020Z,3.04
2019-01-30T05:50:28.460Z,3.14
2019-01-30T05:52:55.920Z,3.12
2019-01-30T05:55:23.376Z,3.16
2019-01-30T05:57:50.839Z,3.15
2019-01-30T06:00:20.814Z,3.14
2019-01-30T06:02:48.259Z,3.15
2019-01-30T06:05:16.084Z,3.24
2019-01-30T06:07:43.526Z,3.17
2019-01-30T06:10:10.973Z,3.24
2019-01-30T06:12:38.449Z,3.19
2019-01-30T06:15:07.773Z,3.21
2019-01-30T06:17:35.200Z,3.23
2019-01-30T06:20:02.653Z,3.25
2019-01-30T06:22:30.072Z,3.31
2019-01-30T06:24:57.503Z,3.26
2019-01-30T06:27:24.931Z,3.29
2019-01-30T06:29:52.348Z,3.13
2019-01-30T06:32:21.810Z,3.14
2019-01-30T06:34:47.287Z,3.18
2019-01-30T06:37:14.727Z,3.21
2019-01-30T06:39:42.180Z,3.15
2019-01-30T06:42:09.608Z,3.15
2019-01-30T06:44:37.086Z,3.15
2019-01-30T06:47:04.514Z,3.22
2019-01-30T06:49:31.937Z,3.28
2019-01-30T06:51:59.389Z,3.31
2019-01-30T06:54:26.832Z,3.33
2019-01-30T06:56:54.291Z,3.32
2019-01-30T06:59:21.728Z,3.20
2019-01-30T07:01:49.150Z,3.18
2019-01-30T07:04:17.184Z,3.21
2019-01-30T07:06:44.635Z,3.14
2019-01-30T07:09:12.063Z,3.05
2019-01-30T07:11:39.549Z,3.07
2019-01-30T07:14:06.988Z,3.15
2019-01-30T07:16:34.451Z,3.17
2019-01-30T07:19:02.400Z,3.19
2019-01-30T07:21:29.867Z,3.24
2019-01-30T07:23:57.298Z,3.24
2019-01-30T07:26:24.731Z,3.20
2019-01-30T07:28:52.198Z,3.20
2019-01-30T07:31:19.627Z,3.24
2019-01-30T07:33:48.686Z,3.25
2019-01-30T07:36:16.135Z,3.22
2019-01-30T07:38:43.562Z,3.28
2019-01-30T07:41:10.995Z,3.25
2019-01-30T07:43:38.426Z,3.32
2019-01-30T07:46:05.853Z,3.34
2019-01-30T07:48:33.322Z,3.35
2019-01-30T07:51:00.751Z,3.38
2019-01-30T07:53:28.175Z,3.38
2019-01-30T07:55:55.609Z,3.29
2019-01-30T07:58:23.040Z,3.34
2019-01-30T08:00:50.526Z,3.26
2019-01-30T08:03:18.307Z,3.21
2019-01-30T08:05:45.769Z,3.30
2019-01-30T08:08:13.249Z,3.21
2019-01-30T08:10:40.681Z,3.32
2019-01-30T08:13:08.154Z,3.28
2019-01-30T08:15:35.615Z,3.36
2019-01-30T08:18:03.081Z,3.27
2019-01-30T08:20:30.519Z,3.24
2019-01-30T08:22:58.065Z,3.32
2019-01-30T08:25:25.701Z,3.35
2019-01-30T08:27:52.935Z,3.31
2019-01-30T08:30:23.648Z,3.29
2019-01-30T08:32:51.402Z,3.35
2019-01-30T08:35:18.925Z,3.37
2019-01-30T08:37:46.402Z,3.36
2019-01-30T08:40:13.858Z,3.21
2019-01-30T08:42:41.284Z,3.07
2019-01-30T08:45:10.043Z,3.21
2019-01-30T08:47:37.520Z,3.11
2019-01-30T08:50:04.982Z,3.01
2019-01-30T08:52:32.413Z,3.07
2019-01-30T08:54:59.844Z,3.03
2019-01-30T08:57:27.294Z,3.02
2019-01-30T08:59:54.716Z,3.05
2019-01-30T09:02:22.154Z,3.00
2019-01-30T09:04:49.583Z,2.97
2019-01-30T09:07:17.025Z,3.03
2019-01-30T09:09:44.475Z,3.00
2019-01-30T09:12:11.963Z,3.00
2019-01-30T09:14:39.399Z,2.94
2019-01-30T09:17:08.734Z,2.87
2019-01-30T09:19:34.302Z,2.95
2019-01-30T09:22:01.756Z,2.90
2019-01-30T09:24:29.218Z,3.00
2019-01-30T09:26:56.661Z,2.96
2019-01-30T09:29:24.109Z,2.99
2019-01-30T09:31:51.557Z,3.00
2019-01-30T09:34:20.043Z,2.99
2019-01-30T09:36:48.941Z,3.06
2019-01-30T09:39:16.464Z,3.10
2019-01-30T09:41:43.928Z,3.07
2019-01-30T09:44:11.381Z,3.15
2019-01-30T09:46:38.802Z,3.16
2019-01-30T09:49:06.226Z,3.13
2019-01-30T09:51:33.683Z,3.13
2019-01-30T09:54:01.096Z,3.13
2019-01-30T09:56:28.587Z,3.12
2019-01-30T09:58:56.000Z,3.21
2019-01-30T10:01:23.466Z,3.22
2019-01-30T10:03:50.934Z,3.19
2019-01-30T10:06:18.374Z,3.24
2019-01-30T10:08:45.852Z,3.29
2019-01-30T10:11:13.328Z,3.19
2019-01-30T10:13:40.780Z,3.25
2019-01-30T10:16:08.191Z,3.25
2019-01-30T10:18:35.649Z,3.20
2019-01-30T10:21:03.093Z,3.21
2019-01-30T10:23:30.602Z,3.19
2019-01-30T10:25:58.014Z,3.21
2019-01-30T10:28:25.459Z,3.22
2019-01-30T10:30:52.887Z,3.24
2019-01-30T10:33:20.854Z,3.22
2019-01-30T10:35:48.300Z,3.25
2019-01-30T10:38:15.749Z,3.08
2019-01-30T10:40:43.197Z,3.17
2019-01-30T10:43:10.696Z,3.18
2019-01-30T10:45:38.514Z,3.15
2019-01-30T10:48:05.641Z,3.12
2019-01-30T10:50:33.099Z,3.21
2019-01-30T10:53:00.533Z,3.14
2019-01-30T10:55:29.753Z,3.18
2019-01-30T10:57:57.179Z,3.17
2019-01-30T11:00:25.606Z,3.18
2019-01-30T11:02:53.090Z,3.15
2019-01-30T11:05:20.538Z,3.21
2019-01-30T11:07:47.994Z,3.14
2019-01-30T11:10:15.477Z,3.19
2019-01-30T11:12:42.901Z,3.24
2019-01-30T11:15:10.378Z,3.21
2019-01-30T11:17:38.903Z,3.21
2019-01-30T11:20:06.403Z,3.23
2019-01-30T11:22:33.836Z,3.25
2019-01-30T11:25:01.284Z,3.31
2019-01-30T11:27:28.758Z,3.26
2019-01-30T11:29:56.202Z,3.27
2019-01-30T11:32:23.649Z,3.29
2019-01-30T11:34:51.099Z,3.29
2019-01-30T11:37:18.549Z,3.39
2019-01-30T11:39:45.977Z,3.28
2019-01-30T11:42:13.415Z,3.33
2019-01-30T11:44:40.853Z,3.39
2019-01-30T11:47:08.347Z,3.41
2019-01-30T11:49:35.857Z,3.38
2019-01-30T11:52:03.323Z,3.39
2019-01-30T11:54:38.620Z,3.44
2019-01-30T11:56:58.303Z,3.42
2019-01-30T11:59:25.755Z,3.51
2019-01-30T12:01:53.523Z,3.52
2019-01-30T12:04:20.992Z,3.55
2019-01-30T12:06:48.433Z,3.49
2019-01-30T12:09:15.883Z,3.53
2019-01-30T12:11:43.349Z,3.51
2019-01-30T12:14:10.790Z,3.54
2019-01-30T12:16:39.231Z,3.54
2019-01-30T12:19:06.698Z,3.58
2019-01-30T12:21:34.158Z,3.57
2019-01-30T12:24:01.612Z,3.59
2019-01-30T12:26:29.071Z,3.63
2019-01-30T12:28:56.532Z,3.65
2019-01-30T12:31:24.163Z,3.68
2019-01-30T12:33:51.654Z,3.70
2019-01-30T12:36:19.133Z,3.63
2019-01-30T12:38:47.695Z,3.69
2019-01-30T12:41:15.227Z,3.66
2019-01-30T12:43:45.237Z,3.65
2019-01-30T12:46:10.148Z,3.69
2019-01-30T12:48:37.621Z,3.60
2019-01-30T12:51:05.922Z,3.63
2019-01-30T12:53:34.818Z,3.56
2019-01-30T12:56:00.942Z,3.53
2019-01-30T12:58:28.667Z,3.57
2019-01-30T13:00:56.228Z,3.56
2019-01-30T13:03:23.654Z,3.59
2019-01-30T13:05:51.096Z,3.56
2019-01-30T13:08:18.529Z,3.61
2019-01-30T13:10:45.999Z,3.59
2019-01-30T13:13:13.428Z,3.62
2019-01-30T13:15:40.951Z,3.66
2019-01-30T13:18:17.806Z,3.55
2019-01-30T13:20:35.796Z,3.58
2019-01-30T13:23:03.211Z,3.50
2019-01-30T13:25:30.637Z,3.55
2019-01-30T13:27:58.071Z,3.53
2019-01-30T13:30:26.999Z,3.53
2019-01-30T13:32:56.183Z,3.56
2019-01-30T13:35:23.639Z,3.58
2019-01-30T13:37:51.118Z,3.63
2019-01-30T13:40:19.472Z,3.48
2019-01-30T13:42:46.936Z,3.58
2019-01-30T13:45:14.395Z,3.55
2019-01-30T13:47:41.898Z,3.61
2019-01-30T13:50:10.128Z,3.62
2019-01-30T13:52:37.604Z,3.71
2019-01-30T13:55:05.168Z,3.68
2019-01-30T13:57:32.583Z,3.66
2019-01-30T14:00:00.055Z,3.71
2019-01-30T14:02:27.513Z,3.70
2019-01-30T14:04:59.507Z,3.71
2019-01-30T14:07:22.421Z,3.73
2019-01-30T14:09:49.881Z,3.70
2019-01-30T14:12:17.346Z,3.68
2019-01-30T14:14:44.793Z,3.75
2019-01-30T14:17:12.268Z,3.71
2019-01-30T14:19:39.774Z,3.77
2019-01-30T14:22:07.209Z,3.74
2019-01-30T14:24:35.192Z,3.77
2019-01-30T14:27:02.648Z,3.81
2019-01-30T14:29:30.106Z,3.81
2019-01-30T14:31:57.561Z,3.81
2019-01-30T14:34:25.055Z,3.79
2019-01-30T14:36:52.510Z,3.75
2019-01-30T14:39:19.985Z,3.75
2019-01-30T14:41:47.421Z,3.61
2019-01-30T14:44:14.888Z,3.62
2019-01-30T14:46:42.354Z,3.73
2019-01-30T14:49:09.810Z,3.78
2019-01-30T14:51:37.278Z,3.79
2019-01-30T14:54:04.758Z,3.76
2019-01-30T14:56:32.206Z,3.80
2019-01-30T14:58:59.876Z,3.82
2019-01-30T15:01:27.344Z,3.85
2019-01-30T15:03:54.836Z,3.88
2019-01-30T15:06:22.256Z,3.43
2019-01-30T15:08:49.723Z,3.54
2019-01-30T15:11:17.174Z,3.72
2019-01-30T15:13:44.633Z,3.62
2019-01-30T15:16:12.082Z,3.27
2019-01-30T15:18:39.570Z,2.92
2019-01-30T15:21:06.988Z,3.14
2019-01-30T15:23:34.429Z,2.80
2019-01-30T15:26:01.914Z,2.62
2019-01-30T15:28:29.353Z,2.57
2019-01-30T15:30:57.669Z,2.59
2019-01-30T15:33:25.087Z,2.41
2019-01-30T15:35:52.543Z,2.45
2019-01-30T15:38:20.849Z,2.41
2019-01-30T15:40:47.497Z,2.40
2019-01-30T15:43:16.204Z,2.29
2019-01-30T15:45:43.647Z,2.41
2019-01-30T15:48:11.126Z,2.42
2019-01-30T15:50:39.309Z,2.22
2019-01-30T15:53:07.583Z,2.25
2019-01-30T15:55:35.021Z,1.85
2019-01-30T15:58:02.584Z,2.03
2019-01-30T16:00:33.494Z,1.81
2019-01-30T16:03:00.961Z,1.69
2019-01-30T16:05:29.899Z,2.02
2019-01-30T16:07:58.418Z,2.00
2019-01-30T16:10:25.886Z,1.75
2019-01-30T16:12:53.393Z,2.07
2019-01-30T16:15:30.429Z,2.04
2019-01-30T16:17:58.525Z,1.92
2019-01-30T16:20:25.991Z,2.02
2019-01-30T16:22:53.478Z,1.67
2019-01-30T16:25:20.995Z,1.83
2019-01-30T16:27:48.460Z,1.74
2019-01-30T16:30:16.687Z,1.87
2019-01-30T16:32:44.096Z,1.85
2019-01-30T16:35:11.521Z,2.00
2019-01-30T16:37:39.054Z,2.15
2019-01-30T16:40:06.536Z,2.07
2019-01-30T16:42:34.003Z,2.35
2019-01-30T16:45:02.528Z,2.11
2019-01-30T16:47:29.271Z,2.26
2019-01-30T16:49:56.730Z,2.19
2019-01-30T16:52:24.188Z,1.58
2019-01-30T16:54:51.698Z,1.93
2019-01-30T16:57:19.211Z,1.72
2019-01-30T16:59:46.720Z,1.79
2019-01-30T17:02:14.257Z,1.37
2019-01-30T17:04:41.687Z,1.41
2019-01-30T17:07:10.262Z,1.56
2019-01-30T17:09:37.798Z,1.44
2019-01-30T17:12:05.274Z,1.43
2019-01-30T17:14:32.737Z,1.50
2019-01-30T17:17:00.159Z,1.35
2019-01-30T17:19:27.823Z,1.42
2019-01-30T17:21:55.327Z,1.47
2019-01-30T17:24:22.772Z,1.35
2019-01-30T17:26:50.271Z,1.45
2019-01-30T17:29:17.787Z,1.24
2019-01-30T17:31:45.357Z,1.27
2019-01-30T17:34:12.791Z,0.92
2019-01-30T17:36:40.264Z,1.31
2019-01-30T17:39:07.706Z,0.98
2019-01-30T17:41:35.183Z,0.79
2019-01-30T17:44:02.620Z,1.16
2019-01-30T17:46:30.429Z,1.19
2019-01-30T17:48:57.867Z,1.18
2019-01-30T17:51:25.309Z,1.28
2019-01-30T17:53:52.803Z,1.43
2019-01-30T17:56:20.251Z,1.44
2019-01-30T17:58:47.697Z,1.61
2019-01-30T18:01:15.126Z,1.33
2019-01-30T18:03:42.586Z,1.34
2019-01-30T18:06:12.660Z,1.58
2019-01-30T18:08:37.559Z,1.44
2019-01-30T18:11:04.998Z,1.46
2019-01-30T18:13:32.454Z,1.52
2019-01-30T18:15:59.876Z,1.56
2019-01-30T18:18:27.334Z,1.62
2019-01-30T18:20:54.783Z,1.57
2019-01-30T18:23:22.257Z,1.78
2019-01-30T18:25:49.702Z,1.75
2019-01-30T18:28:17.181Z,1.59
2019-01-30T18:30:44.655Z,1.51
2019-01-30T18:33:12.140Z,1.47
2019-01-30T18:35:39.575Z,1.37
2019-01-30T18:38:07.032Z,1.46
2019-01-30T18:40:34.478Z,1.62
2019-01-30T18:43:01.928Z,1.50
2019-01-30T18:45:29.418Z,1.65
2019-01-30T18:47:56.843Z,1.48
2019-01-30T18:50:25.927Z,1.70
2019-01-30T18:52:53.441Z,1.37
2019-01-30T18:55:20.901Z,1.39
2019-01-30T18:57:48.387Z,1.61
2019-01-30T19:00:20.229Z,1.69
2019-01-30T19:02:47.839Z,1.63
2019-01-30T19:05:15.403Z,1.71
2019-01-30T19:07:43.069Z,1.46
2019-01-30T19:10:10.507Z,1.17
2019-01-30T19:12:37.960Z,1.26
2019-01-30T19:15:05.392Z,1.14
2019-01-30T19:17:32.928Z,1.34
2019-01-30T19:20:00.531Z,1.10
2019-01-30T19:22:28.036Z,1.43
2019-01-30T19:24:55.746Z,1.35
2019-01-30T19:27:23.212Z,1.80
2019-01-30T19:29:50.650Z,1.48
2019-01-30T19:32:18.103Z,1.64
2019-01-30T19:34:45.691Z,1.54
2019-01-30T19:37:13.155Z,1.74
2019-01-30T19:39:40.635Z,1.53
2019-01-30T19:42:08.111Z,1.35
2019-01-30T19:44:35.803Z,1.61
2019-01-30T19:47:03.266Z,1.24
2019-01-30T19:49:30.852Z,1.57
2019-01-30T19:51:58.373Z,1.63
2019-01-30T19:54:25.921Z,1.56
2019-01-30T19:56:53.380Z,1.50
2019-01-30T19:59:20.878Z,1.58
2019-01-30T20:01:48.392Z,1.52
2019-01-30T20:04:15.861Z,1.35
2019-01-30T20:06:43.373Z,1.26
2019-01-30T20:09:10.997Z,1.31
2019-01-30T20:11:38.524Z,1.54
2019-01-30T20:14:06.048Z,1.36
2019-01-30T20:16:33.669Z,1.58
2019-01-30T20:19:01.208Z,1.75
2019-01-30T20:24:20.916Z,1.55
2019-01-30T20:26:48.517Z,1.56
2019-01-30T20:29:15.967Z,1.58
2019-01-30T20:34:45.633Z,1.81
2019-01-30T20:37:13.103Z,1.61
2019-01-30T20:39:40.588Z,1.42
2019-01-30T20:42:08.068Z,1.77
2019-01-30T20:44:35.737Z,1.90
2019-01-30T20:47:03.309Z,1.74
2019-01-30T20:49:30.896Z,1.75
2019-01-30T20:51:58.407Z,1.95
2019-01-30T20:54:25.882Z,1.98
2019-01-30T20:56:54.492Z,1.82
2019-01-30T20:59:21.977Z,1.86
2019-01-30T21:01:49.445Z,1.82
2019-01-30T21:04:16.974Z,1.71
2019-01-30T21:06:44.475Z,2.03
2019-01-30T21:09:12.235Z,1.76
2019-01-30T21:11:39.998Z,1.96
2019-01-30T21:14:07.579Z,1.77
2019-01-30T21:16:35.436Z,1.78
2019-01-30T21:19:02.924Z,1.83
2019-01-30T21:21:30.605Z,1.75
2019-01-30T21:23:58.277Z,2.02
2019-01-30T21:26:25.952Z,1.58
2019-01-30T21:28:53.441Z,1.90
2019-01-30T21:31:20.928Z,2.09
2019-01-30T21:33:49.246Z,2.17
2019-01-30T21:36:17.307Z,2.06
2019-01-30T21:38:44.978Z,1.85
2019-01-30T21:41:12.473Z,2.15
2019-01-30T21:43:40.012Z,2.20
2019-01-30T21:46:07.524Z,2.18
2019-01-30T21:48:35.213Z,2.03
2019-01-30T21:51:02.690Z,1.59
2019-01-30T21:53:30.195Z,1.42
2019-01-30T21:55:58.614Z,1.59
2019-01-30T21:58:26.192Z,1.78
2019-01-30T22:00:53.717Z,1.53
2019-01-30T22:03:21.534Z,1.64
2019-01-30T22:05:49.142Z,1.61
2019-01-30T22:08:17.271Z,1.33
2019-01-30T22:10:44.701Z,1.52
2019-01-30T22:13:12.180Z,1.29
2019-01-30T22:15:39.710Z,1.56
2019-01-30T22:18:07.474Z,1.32
2019-01-30T22:20:34.968Z,1.55
2019-01-30T22:23:02.431Z,1.16
2019-01-30T22:25:29.943Z,1.15
2019-01-30T22:27:57.434Z,1.51
2019-01-30T22:30:24.897Z,1.39
2019-01-30T22:32:52.379Z,1.46
2019-01-30T22:35:19.838Z,1.64
2019-01-30T22:37:47.299Z,1.58
2019-01-30T22:40:14.808Z,1.37
2019-01-30T22:42:42.254Z,1.40
2019-01-30T22:45:12.474Z,1.58
2019-01-30T22:47:39.939Z,1.61
2019-01-30T22:50:07.375Z,1.56
2019-01-30T22:52:34.797Z,1.65
2019-01-30T22:55:02.286Z,1.43
2019-01-30T22:57:29.735Z,1.49
2019-01-30T22:59:57.279Z,1.58
2019-01-30T23:02:24.720Z,1.67
2019-01-30T23:04:54.731Z,1.53
2019-01-30T23:07:23.189Z,1.76
2019-01-30T23:10:10.105Z,1.79
2019-01-30T23:13:07.443Z,1.76
2019-01-30T23:15:36.654Z,1.75
2019-01-30T23:18:27.527Z,1.90
2019-01-30T23:20:55.992Z,1.66
2019-01-30T23:23:34.753Z,1.66
2019-01-30T23:26:15.711Z,1.65
2019-01-30T23:28:55.656Z,1.97
2019-01-30T23:31:42.455Z,2.07
2019-01-30T23:34:16.496Z,1.58
2019-01-30T23:37:05.650Z,1.67
2019-01-30T23:43:01.709Z,1.54
2019-01-30T23:45:47.721Z,1.50
2019-01-30T23:48:34.481Z,1.52
2019-01-30T23:51:28.248Z,1.19
2019-01-30T23:53:57.521Z,1.43
2019-01-30T23:56:31.357Z,1.18
2019-01-30T23:58:58.854Z,1.35
